Southport, FL (32409)

1:10 AM CST on January 29, 2015 (GMT -0600)
White Western Lake | Change Station
CLOSE
Current Station
Personal Weather Station
Location: Southport, FL
Elevation: 28 ft
Nearby Weather Stations

Elev 28 ft 30.40 °N, 85.70 °W | Updated 6 seconds ago

Clear
Clear
38.5 °F
Feels Like 38 °F
N
0.0
Wind Variable Wind from SSE
Gusts 0.0 mph

Today
High -- | Low -- °F
--% Chance of Precip.
Yesterday
High -- | Low -- °F
Precip. -- in
6:35 AM 5:16 PM
Waxing Gibbous, 72% visible
Pressure 30.28 in
Visibility 9.0 miles
Clouds Clear
Windchill 38 °F
Dew Point 18 °F
Humidity 43%
Rainfall 0.00 in
Snow Depth Not available.
UV 0 out of 12
Pollen 5.70 out of 12
Air Quality Not available.
Flu Activity Not available.
METAR KECP 290653Z AUTO 09003KT 9SM CLR 04/02 A3025 RMK AO2 SLP254 T00440022

More Conditions Fewer Conditions

Pressure 30.28 in
Visibility 9.0 miles
Clouds Clear
Windchill 38 °F
Dew Point 18 °F
Humidity 43%
Rainfall 0.00 in
Snow Depth Not available.
UV 0 out of 12
Pollen 5.70 out of 12
Air Quality Not available.
Flu Activity Not available.
METAR KECP 290653Z AUTO 09003KT 9SM CLR 04/02 A3025 RMK AO2 SLP254 T00440022

More Conditions Fewer Conditions

10-Day Weather Forecast

Almanac

Astronomy

Jan. 29, 2015 Rise Set
Actual Time
Civil Twilight
Nautical Twilight
Astronomical Twilight
Moon
Length of Visible Light
Length of Day
Tomorrow will be .
, % of the Moon is Illuminated

Today's Extremes

State Highs State Lows

Community

WunderPhotos

Upload Photos

1,791,387 photos uploaded!

WunderBlogs® & News

Nearby

Air Quality

  Air Quality AQ Index Pollutant
Not available.

Snow Depth

Station Depth Elevation

Earthquake Activity

City Distance Mag. Time & Date
Minimum magnitude displayed is 2.5.

Coastal Water Temperatures

Place Temperature

Nearby Weather Stations